Time,TemperatureF,DewpointF,PressureIn,WindDirection,WindDirectionDegrees,WindSpeedMPH,WindSpeedGustMPH,Humidity,HourlyPrecipIn,Conditions,Clouds,dailyrainin,SoftwareType,DateUTC
2013-03-22 00:12:00,39.6,24.0,29.92,North,360,21.0,26.0,53,0.00,,,0.00,weatherlink.com 1.10,2013-03-22 04:12:00,
2013-03-22 00:27:00,39.5,23.0,29.93,NNW,348,21.0,26.0,52,0.00,,,0.00,weatherlink.com 1.10,2013-03-22 04:27:00,
2013-03-22 00:42:00,39.2,22.0,29.93,NNE,15,22.0,25.0,51,0.00,,,0.00,weatherlink.com 1.10,2013-03-22 04:42:00,
2013-03-22 00:57:00,39.1,24.0,29.93,NNW,347,16.0,23.0,56,0.00,,,0.00,weatherlink.com 1.10,2013-03-22 04:57:00,
2013-03-22 01:12:00,38.9,24.0,29.94,North,8,15.0,24.0,55,0.00,,,0.00,weatherlink.com 1.10,2013-03-22 05:12:00,
2013-03-22 01:27:00,38.8,25.0,29.94,NNW,338,12.0,24.0,57,0.00,,,0.00,weatherlink.com 1.10,2013-03-22 05:27:00,
2013-03-22 01:42:00,38.5,24.0,29.94,NNE,20,11.0,23.0,56,0.00,,,0.00,weatherlink.com 1.10,2013-03-22 05:42:00,
2013-03-22 01:57:00,38.3,24.0,29.95,NNE,29,11.0,24.0,56,0.00,,,0.00,weatherlink.com 1.10,2013-03-22 05:57:00,
2013-03-22 02:12:00,38.2,21.0,29.95,North,6,17.0,23.0,50,0.00,,,0.00,weatherlink.com 1.10,2013-03-22 06:12:00,
2013-03-22 02:27:00,38.1,21.0,29.95,NNE,12,13.0,23.0,50,0.00,,,0.00,weatherlink.com 1.10,2013-03-22 06:27:00,
2013-03-22 02:42:00,38.0,22.0,29.96,North,8,16.0,22.0,52,0.00,,,0.00,weatherlink.com 1.10,2013-03-22 06:42:00,
2013-03-22 02:57:00,37.9,21.0,29.96,NE,37,15.0,23.0,50,0.00,,,0.00,weatherlink.com 1.10,2013-03-22 06:57:00,
2013-03-22 03:12:00,37.8,21.0,29.96,NNE,25,14.0,18.0,52,0.00,,,0.00,weatherlink.com 1.10,2013-03-22 07:12:00,
2013-03-22 03:27:00,37.6,22.0,29.96,NNE,30,19.0,22.0,54,0.00,,,0.00,weatherlink.com 1.10,2013-03-22 07:27:00,
2013-03-22 03:42:00,37.2,22.0,29.97,NNE,18,16.0,24.0,54,0.00,,,0.00,weatherlink.com 1.10,2013-03-22 07:42:00,
2013-03-22 03:57:00,36.8,20.0,29.97,NNE,20,12.0,20.0,52,0.00,,,0.00,weatherlink.com 1.10,2013-03-22 07:57:00,
2013-03-22 04:12:00,36.6,21.0,29.97,North,5,9.0,21.0,53,0.00,,,0.00,weatherlink.com 1.10,2013-03-22 08:12:00,
2013-03-22 04:27:00,36.2,19.0,29.98,NNE,27,12.0,20.0,49,0.00,,,0.00,weatherlink.com 1.10,2013-03-22 08:27:00,
2013-03-22 04:42:00,36.0,19.0,29.99,NNW,346,16.0,20.0,51,0.00,,,0.00,weatherlink.com 1.10,2013-03-22 08:42:00,
2013-03-22 04:57:00,-999.0,-99.9,29.99,North,-999,-999.0,-999.0,-999,0.00,,,0.00,weatherlink.com 1.10,2013-03-22 08:57:00,
2013-03-22 05:13:00,-999.0,-99.9,29.99,North,-999,-999.0,-999.0,-999,0.00,,,0.00,weatherlink.com 1.10,2013-03-22 09:13:00,
2013-03-22 05:28:00,-999.0,-99.9,29.99,North,-999,-999.0,-999.0,-999,0.00,,,0.00,weatherlink.com 1.10,2013-03-22 09:28:00,
2013-03-22 05:43:00,-999.0,-99.9,30.00,North,-999,-999.0,-999.0,-999,0.00,,,0.00,weatherlink.com 1.10,2013-03-22 09:43:00,
2013-03-22 05:58:00,-999.0,-99.9,30.01,North,-999,-999.0,-999.0,-999,0.00,,,0.00,weatherlink.com 1.10,2013-03-22 09:58:00,
2013-03-22 06:13:00,-999.0,-99.9,30.01,North,-999,-999.0,-999.0,-999,0.00,,,0.00,weatherlink.com 1.10,2013-03-22 10:13:00,
2013-03-22 06:28:00,-999.0,-99.9,30.01,North,-999,-999.0,-999.0,-999,0.00,,,0.00,weatherlink.com 1.10,2013-03-22 10:28:00,
2013-03-22 06:43:00,-999.0,-99.9,30.02,North,-999,-999.0,-999.0,-999,0.00,,,0.00,weatherlink.com 1.10,2013-03-22 10:43:00,
2013-03-22 06:58:00,-999.0,-99.9,30.02,North,-999,-999.0,-999.0,-999,0.00,,,0.00,weatherlink.com 1.10,2013-03-22 10:58:00,
2013-03-22 07:13:00,-999.0,-99.9,30.03,North,-999,-999.0,-999.0,-999,0.00,,,0.00,weatherlink.com 1.10,2013-03-22 11:13:00,
2013-03-22 07:28:00,35.7,21.0,30.03,NE,47,10.0,17.0,56,0.00,,,0.00,weatherlink.com 1.10,2013-03-22 11:28:00,
2013-03-22 07:43:00,36.0,22.0,30.04,NNE,18,7.0,16.0,56,0.00,,,0.00,weatherlink.com 1.10,2013-03-22 11:43:00,
2013-03-22 07:58:00,36.3,21.0,30.05,NNW,344,11.0,14.0,55,0.00,,,0.00,weatherlink.com 1.10,2013-03-22 11:58:00,
2013-03-22 08:13:00,36.5,22.0,30.06,NW,315,5.0,14.0,56,0.00,,,0.00,weatherlink.com 1.10,2013-03-22 12:13:00,
2013-03-22 08:28:00,36.6,22.0,30.06,NNE,18,9.0,14.0,57,0.00,,,0.00,weatherlink.com 1.10,2013-03-22 12:28:00,
2013-03-22 08:43:00,36.8,23.0,30.07,NNW,330,5.0,13.0,57,0.00,,,0.00,weatherlink.com 1.10,2013-03-22 12:43:00,
2013-03-22 08:58:00,37.0,22.0,30.07,North,354,8.0,14.0,56,0.00,,,0.00,weatherlink.com 1.10,2013-03-22 12:58:00,
2013-03-22 09:13:00,37.3,23.0,30.07,North,350,9.0,14.0,57,0.00,,,0.00,weatherlink.com 1.10,2013-03-22 13:13:00,
2013-03-22 09:43:00,37.7,23.0,30.08,NW,325,10.0,13.0,55,0.00,,,0.00,weatherlink.com 1.10,2013-03-22 13:43:00,
2013-03-22 09:58:00,38.0,23.0,30.08,North,6,3.0,12.0,56,0.00,,,0.00,weatherlink.com 1.10,2013-03-22 13:58:00,
2013-03-22 10:13:00,37.9,23.0,30.08,NE,51,5.0,12.0,55,0.00,,,0.00,weatherlink.com 1.10,2013-03-22 14:13:00,
2013-03-22 10:28:00,38.3,22.0,30.08,NNW,335,6.0,12.0,53,0.00,,,0.00,weatherlink.com 1.10,2013-03-22 14:28:00,
2013-03-22 10:43:00,38.5,23.0,30.08,NE,40,4.0,14.0,54,0.00,,,0.00,weatherlink.com 1.10,2013-03-22 14:43:00,
2013-03-22 10:58:00,38.6,23.0,30.08,NNE,32,8.0,12.0,54,0.00,,,0.00,weatherlink.com 1.10,2013-03-22 14:58:00,
2013-03-22 11:14:00,38.3,22.0,30.08,NNE,15,6.0,13.0,53,0.00,,,0.00,weatherlink.com 1.10,2013-03-22 15:14:00,
2013-03-22 11:30:00,39.1,24.0,30.08,North,8,10.0,11.0,55,0.00,,,0.00,weatherlink.com 1.10,2013-03-22 15:30:00,
2013-03-22 11:44:00,39.0,23.0,30.09,North,6,7.0,10.0,53,0.00,,,0.00,weatherlink.com 1.10,2013-03-22 15:44:00,
2013-03-22 11:59:00,39.3,22.0,30.08,NNE,27,6.0,9.0,51,0.00,,,0.00,weatherlink.com 1.10,2013-03-22 15:59:00,
2013-03-22 12:14:00,39.6,24.0,30.08,NNW,333,9.0,9.0,54,0.00,,,0.00,weatherlink.com 1.10,2013-03-22 16:14:00,
2013-03-22 12:29:00,40.1,23.0,30.08,NW,309,9.0,11.0,51,0.00,,,0.00,weatherlink.com 1.10,2013-03-22 16:29:00,
2013-03-22 12:44:00,39.5,23.0,30.07,NNW,343,5.0,9.0,52,0.00,,,0.00,weatherlink.com 1.10,2013-03-22 16:44:00,
2013-03-22 12:59:00,39.6,23.0,30.07,NW,308,8.0,10.0,51,0.00,,,0.00,weatherlink.com 1.10,2013-03-22 16:59:00,
2013-03-22 13:14:00,40.2,23.0,30.07,WSW,242,4.0,11.0,51,0.00,,,0.00,weatherlink.com 1.10,2013-03-22 17:14:00,
2013-03-22 13:29:00,40.1,22.0,30.06,WNW,293,4.0,10.0,49,0.00,,,0.00,weatherlink.com 1.10,2013-03-22 17:29:00,
2013-03-22 13:44:00,40.6,23.0,30.06,WNW,300,9.0,10.0,50,0.00,,,0.00,weatherlink.com 1.10,2013-03-22 17:44:00,
2013-03-22 13:59:00,41.1,22.0,30.06,NW,304,6.0,10.0,47,0.00,,,0.00,weatherlink.com 1.10,2013-03-22 17:59:00,
2013-03-22 14:14:00,41.4,22.0,30.05,WSW,252,9.0,10.0,47,0.00,,,0.00,weatherlink.com 1.10,2013-03-22 18:14:00,
2013-03-22 14:29:00,41.7,24.0,30.04,WSW,242,8.0,11.0,50,0.00,,,0.00,weatherlink.com 1.10,2013-03-22 18:29:00,
2013-03-22 14:44:00,42.5,24.0,30.04,West,281,5.0,9.0,49,0.00,,,0.00,weatherlink.com 1.10,2013-03-22 18:44:00,
2013-03-22 14:59:00,41.2,24.0,30.03,NW,307,10.0,14.0,51,0.00,,,0.00,weatherlink.com 1.10,2013-03-22 18:59:00,
2013-03-22 15:14:00,41.3,25.0,30.02,WNW,290,4.0,11.0,52,0.00,,,0.00,weatherlink.com 1.10,2013-03-22 19:14:00,
2013-03-22 15:29:00,42.7,25.0,30.02,West,263,8.0,13.0,49,0.00,,,0.00,weatherlink.com 1.10,2013-03-22 19:29:00,
2013-03-22 15:44:00,43.3,25.0,30.02,West,263,5.0,10.0,49,0.00,,,0.00,weatherlink.com 1.10,2013-03-22 19:44:00,
2013-03-22 15:59:00,44.0,25.0,30.01,WSW,255,5.0,10.0,48,0.00,,,0.00,weatherlink.com 1.10,2013-03-22 19:59:00,
2013-03-22 16:14:00,44.6,26.0,30.01,WNW,295,5.0,13.0,49,0.00,,,0.00,weatherlink.com 1.10,2013-03-22 20:14:00,
2013-03-22 16:29:00,44.8,22.0,30.01,WNW,288,9.0,14.0,41,0.00,,,0.00,weatherlink.com 1.10,2013-03-22 20:29:00,
2013-03-22 16:44:00,44.9,23.0,30.01,NNW,328,5.0,15.0,43,0.00,,,0.00,weatherlink.com 1.10,2013-03-22 20:44:00,
2013-03-22 16:59:00,46.1,25.0,30.01,West,264,9.0,13.0,43,0.00,,,0.00,weatherlink.com 1.10,2013-03-22 20:59:00,
2013-03-22 17:14:00,46.1,29.0,30.01,WSW,242,11.0,14.0,51,0.00,,,0.00,weatherlink.com 1.10,2013-03-22 21:14:00,
2013-03-22 17:29:00,44.5,29.0,30.01,WSW,253,11.0,15.0,54,0.00,,,0.00,weatherlink.com 1.10,2013-03-22 21:29:00,
2013-03-22 17:45:00,44.4,29.0,30.01,SW,229,8.0,15.0,54,0.00,,,0.00,weatherlink.com 1.10,2013-03-22 21:45:00,
2013-03-22 17:59:00,44.4,29.0,30.01,SW,233,6.0,12.0,56,0.00,,,0.00,weatherlink.com 1.10,2013-03-22 21:59:00,
2013-03-22 18:14:00,44.5,30.0,30.01,WSW,252,11.0,13.0,58,0.00,,,0.00,weatherlink.com 1.10,2013-03-22 22:14:00,
2013-03-22 18:29:00,44.7,30.0,30.01,WSW,248,8.0,13.0,57,0.00,,,0.00,weatherlink.com 1.10,2013-03-22 22:29:00,
2013-03-22 18:44:00,44.6,32.0,30.01,West,260,9.0,14.0,61,0.00,,,0.00,weatherlink.com 1.10,2013-03-22 22:44:00,
2013-03-22 18:59:00,44.4,33.0,30.01,West,260,12.0,13.0,65,0.00,,,0.00,weatherlink.com 1.10,2013-03-22 22:59:00,
2013-03-22 19:14:00,44.5,33.0,30.01,West,263,9.0,14.0,64,0.00,,,0.00,weatherlink.com 1.10,2013-03-22 23:14:00,
2013-03-22 19:29:00,44.7,35.0,30.02,West,270,8.0,14.0,68,0.00,,,0.00,weatherlink.com 1.10,2013-03-22 23:29:00,
2013-03-22 19:44:00,45.1,34.0,30.02,SW,228,9.0,16.0,65,0.00,,,0.00,weatherlink.com 1.10,2013-03-22 23:44:00,
2013-03-22 19:59:00,45.7,34.0,30.02,West,276,11.0,16.0,65,0.00,,,0.00,weatherlink.com 1.10,2013-03-22 23:59:00,
2013-03-22 20:14:00,46.3,34.0,30.02,West,273,8.0,16.0,63,0.00,,,0.00,weatherlink.com 1.10,2013-03-23 00:14:00,
2013-03-22 20:29:00,46.4,36.0,30.02,WSW,249,7.0,16.0,66,0.00,,,0.00,weatherlink.com 1.10,2013-03-23 00:29:00,
2013-03-22 20:44:00,46.7,36.0,30.02,West,260,6.0,15.0,66,0.00,,,0.00,weatherlink.com 1.10,2013-03-23 00:44:00,
2013-03-22 20:59:00,46.2,35.0,30.03,WNW,300,7.0,13.0,66,0.00,,,0.00,weatherlink.com 1.10,2013-03-23 00:59:00,
2013-03-22 21:15:00,45.9,34.0,30.03,West,271,6.0,12.0,64,0.00,,,0.00,weatherlink.com 1.10,2013-03-23 01:15:00,
2013-03-22 21:29:00,45.9,35.0,30.04,WNW,291,8.0,13.0,65,0.00,,,0.00,weatherlink.com 1.10,2013-03-23 01:29:00,
2013-03-22 21:44:00,45.8,34.0,30.04,West,278,7.0,11.0,63,0.00,,,0.00,weatherlink.com 1.10,2013-03-23 01:44:00,
2013-03-22 21:59:00,45.8,35.0,30.04,NW,307,8.0,14.0,65,0.00,,,0.00,weatherlink.com 1.10,2013-03-23 01:59:00,
2013-03-22 22:14:00,45.6,35.0,30.05,West,269,6.0,14.0,66,0.00,,,0.00,weatherlink.com 1.10,2013-03-23 02:14:00,
2013-03-22 22:29:00,45.7,35.0,30.05,WNW,301,9.0,13.0,66,0.00,,,0.00,weatherlink.com 1.10,2013-03-23 02:29:00,
2013-03-22 22:44:00,45.7,35.0,30.05,WNW,285,6.0,14.0,67,0.00,,,0.00,weatherlink.com 1.10,2013-03-23 02:44:00,
2013-03-22 22:59:00,45.8,37.0,30.05,WNW,302,11.0,14.0,70,0.00,,,0.00,weatherlink.com 1.10,2013-03-23 02:59:00,
2013-03-22 23:14:00,45.8,37.0,30.05,WNW,286,5.0,13.0,71,0.00,,,0.00,weatherlink.com 1.10,2013-03-23 03:14:00,
2013-03-22 23:29:00,45.7,37.0,30.05,West,276,10.0,14.0,72,0.00,,,0.00,weatherlink.com 1.10,2013-03-23 03:29:00,
2013-03-22 23:44:00,45.8,38.0,30.05,WNW,284,8.0,14.0,73,0.00,,,0.00,weatherlink.com 1.10,2013-03-23 03:44:00,
2013-03-22 23:59:00,45.9,38.0,30.05,WNW,294,7.0,14.0,73,0.00,,,0.00,weatherlink.com 1.10,2013-03-23 03:59:00,